createdAt,value
2019-03-17T00:00:07.086Z,5.43
2019-03-17T00:02:35.531Z,4.80
2019-03-17T00:05:04.787Z,5.33
2019-03-17T00:07:33.246Z,4.70
2019-03-17T00:10:01.699Z,5.70
2019-03-17T00:12:31.492Z,5.00
2019-03-17T00:15:05.068Z,5.17
2019-03-17T00:17:30.312Z,5.10
2019-03-17T00:19:58.795Z,4.37
2019-03-17T00:22:27.247Z,5.00
2019-03-17T00:25:08.157Z,5.13
2019-03-17T00:27:25.930Z,4.13
2019-03-17T00:29:54.389Z,4.20
2019-03-17T00:32:22.846Z,4.33
2019-03-17T00:34:51.333Z,4.23
2019-03-17T00:37:19.777Z,4.10
2019-03-17T00:39:48.996Z,4.43
2019-03-17T00:42:17.803Z,3.73
2019-03-17T00:44:46.232Z,4.60
2019-03-17T00:47:14.700Z,3.50
2019-03-17T00:49:43.181Z,3.93
2019-03-17T00:52:11.611Z,4.43
2019-03-17T00:54:40.048Z,3.90
2019-03-17T00:57:08.676Z,4.07
2019-03-17T00:59:37.125Z,4.20
2019-03-17T01:02:05.569Z,3.90
2019-03-17T01:04:34.057Z,3.57
2019-03-17T01:07:02.527Z,3.77
2019-03-17T01:09:30.973Z,3.80
2019-03-17T01:11:59.471Z,3.60
2019-03-17T01:14:27.903Z,3.13
2019-03-17T01:16:56.353Z,3.63
2019-03-17T01:19:24.854Z,3.40
2019-03-17T01:21:53.315Z,3.30
2019-03-17T01:24:21.767Z,3.87
2019-03-17T01:26:50.273Z,3.53
2019-03-17T01:29:18.736Z,3.30
2019-03-17T01:31:47.185Z,3.20
2019-03-17T01:34:15.679Z,3.03
2019-03-17T01:36:44.132Z,2.33
2019-03-17T01:39:12.602Z,3.07
2019-03-17T01:41:41.110Z,3.60
2019-03-17T01:44:09.683Z,3.03
2019-03-17T01:46:38.140Z,3.70
2019-03-17T01:49:06.628Z,3.10
2019-03-17T01:51:35.076Z,3.37
2019-03-17T01:54:03.526Z,3.20
2019-03-17T01:56:32.003Z,3.43
2019-03-17T01:59:00.457Z,2.90
2019-03-17T02:01:28.901Z,2.73
2019-03-17T02:03:57.394Z,3.10
2019-03-17T02:06:25.836Z,2.93
2019-03-17T02:08:54.286Z,3.17
2019-03-17T02:11:22.802Z,3.47
2019-03-17T02:13:51.257Z,3.23
2019-03-17T02:16:19.724Z,2.80
2019-03-17T02:18:48.199Z,2.80
2019-03-17T02:21:16.662Z,3.37
2019-03-17T02:23:45.096Z,3.00
2019-03-17T02:26:13.567Z,2.97
2019-03-17T02:28:42.013Z,3.00
2019-03-17T02:31:10.477Z,3.40
2019-03-17T02:33:38.955Z,3.33
2019-03-17T02:36:07.563Z,2.70
2019-03-17T02:38:36.035Z,3.27
2019-03-17T02:41:04.605Z,3.23
2019-03-17T02:43:33.055Z,3.00
2019-03-17T02:46:03.129Z,3.10
2019-03-17T02:48:31.764Z,2.83
2019-03-17T02:51:00.226Z,3.17
2019-03-17T02:53:28.694Z,3.30
2019-03-17T02:55:57.159Z,3.10
2019-03-17T02:58:25.600Z,2.80
2019-03-17T03:00:54.047Z,2.70
2019-03-17T03:03:22.565Z,3.10
2019-03-17T03:05:55.133Z,3.07
2019-03-17T03:08:21.192Z,3.00
2019-03-17T03:10:49.679Z,3.67
2019-03-17T03:13:18.189Z,3.20
2019-03-17T03:15:46.589Z,3.60
2019-03-17T03:18:15.084Z,3.57
2019-03-17T03:20:43.557Z,3.00
2019-03-17T03:23:12.010Z,3.10
2019-03-17T03:25:40.524Z,3.27
2019-03-17T03:28:08.998Z,3.10
2019-03-17T03:30:37.456Z,3.30
2019-03-17T03:33:05.949Z,3.37
2019-03-17T03:35:34.393Z,3.20
2019-03-17T03:38:02.836Z,3.40
2019-03-17T03:40:31.328Z,3.50
2019-03-17T03:42:59.772Z,3.23
2019-03-17T03:45:28.237Z,3.30
2019-03-17T03:47:56.901Z,2.87
2019-03-17T03:50:25.380Z,4.40
2019-03-17T03:52:53.848Z,3.20
2019-03-17T03:55:22.338Z,3.17
2019-03-17T03:57:50.792Z,3.77
2019-03-17T04:00:19.409Z,3.80
2019-03-17T04:02:47.917Z,2.73
2019-03-17T04:05:16.368Z,3.40
2019-03-17T04:07:44.819Z,3.00
2019-03-17T04:10:13.564Z,3.67
2019-03-17T04:12:42.019Z,2.53
2019-03-17T04:15:11.313Z,4.00
2019-03-17T04:17:39.813Z,3.63
2019-03-17T04:20:10.766Z,3.33
2019-03-17T04:22:39.211Z,3.10
2019-03-17T04:25:08.359Z,3.17
2019-03-17T04:27:36.842Z,2.30
2019-03-17T04:30:08.239Z,3.10
2019-03-17T04:32:36.763Z,3.27
2019-03-17T04:35:06.552Z,3.00
2019-03-17T04:37:35.077Z,3.10
2019-03-17T04:40:04.439Z,3.77
2019-03-17T04:42:32.889Z,2.80
2019-03-17T04:45:01.339Z,2.83
2019-03-17T04:47:29.835Z,2.30
2019-03-17T04:49:58.410Z,3.93
2019-03-17T04:52:26.864Z,3.27
2019-03-17T04:54:55.355Z,3.30
2019-03-17T04:57:23.802Z,3.40
2019-03-17T04:59:52.268Z,3.20
2019-03-17T05:02:20.760Z,2.40
2019-03-17T05:04:49.211Z,3.50
2019-03-17T05:07:17.665Z,2.70
2019-03-17T05:09:46.164Z,3.23
2019-03-17T05:12:14.623Z,2.93
2019-03-17T05:14:43.077Z,1.97
2019-03-17T05:17:11.549Z,3.33
2019-03-17T05:19:40.030Z,2.97
2019-03-17T05:22:08.493Z,2.63
2019-03-17T05:24:36.979Z,2.83
2019-03-17T05:27:05.438Z,2.57
2019-03-17T05:29:33.893Z,2.60
2019-03-17T05:32:02.393Z,2.43
2019-03-17T05:34:30.848Z,3.27
2019-03-17T05:37:06.027Z,3.07
2019-03-17T05:39:29.521Z,2.90
2019-03-17T05:41:57.984Z,3.13
2019-03-17T05:44:26.446Z,3.00
2019-03-17T05:46:54.926Z,2.93
2019-03-17T05:49:23.373Z,2.70
2019-03-17T05:51:52.158Z,2.70
2019-03-17T05:54:20.658Z,2.70
2019-03-17T05:56:49.110Z,2.10
2019-03-17T05:59:19.640Z,3.03
2019-03-17T06:01:47.785Z,3.07
2019-03-17T06:04:16.319Z,2.53
2019-03-17T06:06:44.774Z,3.20
2019-03-17T06:09:13.268Z,2.47
2019-03-17T06:11:41.727Z,2.57
2019-03-17T06:14:10.187Z,2.50
2019-03-17T06:16:38.662Z,2.37
2019-03-17T06:19:07.120Z,2.37
2019-03-17T06:21:35.575Z,2.60
2019-03-17T06:24:04.060Z,2.80
2019-03-17T06:26:32.514Z,3.40
2019-03-17T06:29:00.957Z,2.80
2019-03-17T06:31:29.440Z,2.50
2019-03-17T06:33:57.897Z,2.40
2019-03-17T06:36:26.370Z,2.40
2019-03-17T06:38:54.839Z,2.37
2019-03-17T06:41:23.317Z,2.43
2019-03-17T06:43:51.780Z,3.10
2019-03-17T06:46:20.278Z,2.93
2019-03-17T06:48:48.736Z,2.90
2019-03-17T06:51:18.188Z,1.90
2019-03-17T06:53:55.722Z,2.50
2019-03-17T06:56:17.098Z,2.20
2019-03-17T06:58:45.577Z,2.50
2019-03-17T07:01:14.121Z,3.67
2019-03-17T07:03:42.584Z,2.70
2019-03-17T07:06:11.022Z,2.30
2019-03-17T07:08:39.505Z,2.40
2019-03-17T07:11:10.943Z,1.93
2019-03-17T07:13:38.405Z,1.63
2019-03-17T07:16:06.909Z,2.67
2019-03-17T07:18:35.366Z,2.47
2019-03-17T07:21:03.816Z,2.07
2019-03-17T07:23:34.328Z,2.03
2019-03-17T07:26:02.499Z,1.80
2019-03-17T07:28:30.961Z,3.47
2019-03-17T07:30:59.450Z,2.67
2019-03-17T07:33:27.924Z,2.33
2019-03-17T07:35:56.378Z,2.30
2019-03-17T07:38:24.965Z,1.80
2019-03-17T07:40:53.425Z,2.60
2019-03-17T07:43:21.870Z,2.23
2019-03-17T07:45:50.356Z,2.13
2019-03-17T07:48:18.813Z,2.57
2019-03-17T07:50:47.260Z,2.17
2019-03-17T07:53:15.795Z,2.10
2019-03-17T07:55:45.252Z,2.30
2019-03-17T07:58:13.712Z,1.90
2019-03-17T08:00:42.222Z,2.80
2019-03-17T08:03:10.682Z,2.10
2019-03-17T08:05:39.147Z,3.17
2019-03-17T08:08:09.817Z,2.70
2019-03-17T08:10:37.826Z,2.90
2019-03-17T08:13:06.318Z,2.00
2019-03-17T08:15:34.805Z,2.33
2019-03-17T08:18:03.270Z,2.50
2019-03-17T08:20:31.725Z,2.53
2019-03-17T08:23:00.226Z,2.67
2019-03-17T08:25:28.688Z,2.70
2019-03-17T08:27:57.148Z,2.47
2019-03-17T08:30:25.675Z,2.03
2019-03-17T08:32:54.138Z,2.00
2019-03-17T08:35:22.600Z,1.90
2019-03-17T08:37:51.092Z,2.30
2019-03-17T08:40:19.617Z,2.20
2019-03-17T08:42:48.082Z,2.10
2019-03-17T08:45:16.559Z,2.40
2019-03-17T08:47:57.535Z,1.87
2019-03-17T08:50:15.639Z,2.17
2019-03-17T08:52:44.175Z,2.70
2019-03-17T08:55:12.710Z,1.93
2019-03-17T08:57:41.508Z,2.40
2019-03-17T09:00:14.890Z,2.60
2019-03-17T09:02:43.398Z,1.87
2019-03-17T09:05:11.890Z,2.67
2019-03-17T09:07:40.391Z,3.40
2019-03-17T09:10:15.755Z,2.27
2019-03-17T09:12:44.308Z,2.73
2019-03-17T09:15:12.859Z,2.27
2019-03-17T09:17:41.352Z,2.80
2019-03-17T09:20:12.460Z,2.10
2019-03-17T09:22:40.954Z,2.97
2019-03-17T09:25:12.377Z,2.30
2019-03-17T09:27:40.882Z,2.13
2019-03-17T09:30:17.519Z,2.40
2019-03-17T09:32:47.720Z,2.70
2019-03-17T09:35:16.369Z,2.13
2019-03-17T09:37:44.838Z,1.80
2019-03-17T09:40:14.345Z,2.50
2019-03-17T09:42:42.822Z,2.90
2019-03-17T09:45:12.726Z,2.30
2019-03-17T09:47:41.629Z,1.80
2019-03-17T09:50:17.796Z,1.43
2019-03-17T09:52:46.250Z,2.10
2019-03-17T09:55:14.714Z,2.23
2019-03-17T09:57:43.210Z,1.43
2019-03-17T10:00:16.868Z,2.20
2019-03-17T10:02:45.321Z,2.40
2019-03-17T10:05:13.946Z,2.17
2019-03-17T10:07:42.492Z,1.70
2019-03-17T10:10:13.461Z,1.60
2019-03-17T10:12:43.587Z,1.93
2019-03-17T10:15:13.685Z,2.40
2019-03-17T10:17:42.142Z,1.80
2019-03-17T10:20:15.496Z,2.37
2019-03-17T10:22:44.102Z,1.93
2019-03-17T10:25:12.983Z,2.20
2019-03-17T10:27:41.555Z,2.57
2019-03-17T10:30:13.225Z,1.87
2019-03-17T10:32:41.706Z,2.60
2019-03-17T10:35:10.360Z,1.80
2019-03-17T10:37:38.821Z,2.03
2019-03-17T10:40:10.448Z,1.63
2019-03-17T10:42:38.948Z,1.67
2019-03-17T10:45:09.251Z,1.17
2019-03-17T10:47:37.727Z,1.30
2019-03-17T10:50:22.380Z,1.67
2019-03-17T10:52:50.837Z,1.90
2019-03-17T10:55:19.300Z,2.10
2019-03-17T10:57:47.881Z,1.70
2019-03-17T11:00:20.856Z,1.57
2019-03-17T11:02:50.415Z,1.80
2019-03-17T11:05:18.915Z,1.90
2019-03-17T11:07:47.375Z,2.07
2019-03-17T11:10:16.597Z,1.30
2019-03-17T11:12:45.180Z,1.77
2019-03-17T11:15:18.317Z,1.40
2019-03-17T11:17:46.781Z,1.57
2019-03-17T11:20:15.289Z,1.73
2019-03-17T11:22:43.820Z,2.27
2019-03-17T11:25:20.131Z,1.53
2019-03-17T11:27:48.634Z,1.50
2019-03-17T11:30:18.229Z,0.70
2019-03-17T11:32:46.697Z,0.80
2019-03-17T11:35:15.215Z,0.67
2019-03-17T11:37:43.813Z,0.77
2019-03-17T11:40:15.285Z,0.70
2019-03-17T11:42:43.777Z,0.70
2019-03-17T11:45:16.014Z,0.60
2019-03-17T11:47:44.736Z,0.57
2019-03-17T11:50:17.487Z,0.60
2019-03-17T11:52:46.025Z,0.70
2019-03-17T11:55:15.120Z,0.80
2019-03-17T11:57:43.696Z,0.80
2019-03-17T12:00:20.975Z,0.70
2019-03-17T12:02:49.463Z,0.60
2019-03-17T12:05:18.104Z,0.63
2019-03-17T12:07:46.556Z,0.60
2019-03-17T12:10:20.393Z,0.70
2019-03-17T12:12:48.915Z,0.60
2019-03-17T12:15:19.473Z,0.73
2019-03-17T12:17:47.969Z,0.60
2019-03-17T12:20:16.499Z,0.60
2019-03-17T12:22:44.960Z,0.67
2019-03-17T12:25:17.161Z,0.70
2019-03-17T12:27:45.623Z,0.60
2019-03-17T12:30:21.737Z,0.77
2019-03-17T12:32:51.422Z,0.60
2019-03-17T12:35:19.945Z,0.90
2019-03-17T12:37:48.453Z,0.80
2019-03-17T12:40:16.985Z,1.30
2019-03-17T12:42:45.434Z,0.70
2019-03-17T12:45:14.289Z,0.70
2019-03-17T12:47:42.833Z,0.83
2019-03-17T12:50:16.689Z,2.20
2019-03-17T12:52:45.188Z,3.73
2019-03-17T12:55:13.646Z,4.20
2019-03-17T12:57:42.139Z,4.97
2019-03-17T13:00:24.093Z,4.87
2019-03-17T13:02:52.553Z,2.20
2019-03-17T13:05:21.036Z,1.50
2019-03-17T13:07:49.801Z,1.70
2019-03-17T13:10:19.791Z,2.33
2019-03-17T13:12:48.244Z,1.93
2019-03-17T13:15:17.323Z,1.80
2019-03-17T13:17:45.783Z,2.43
2019-03-17T13:20:15.533Z,2.30
2019-03-17T13:22:44.025Z,1.77
2019-03-17T13:25:12.651Z,1.70
2019-03-17T13:27:41.179Z,7.10
2019-03-17T13:30:19.162Z,8.37
2019-03-17T13:32:47.776Z,4.20
2019-03-17T13:35:16.235Z,4.40
2019-03-17T13:37:44.769Z,3.23
2019-03-17T13:40:14.364Z,4.20
2019-03-17T13:42:42.833Z,2.90
2019-03-17T13:45:14.621Z,1.87
2019-03-17T13:47:43.152Z,2.70
2019-03-17T13:50:17.207Z,5.00
2019-03-17T13:52:45.713Z,4.40
2019-03-17T13:55:15.297Z,2.50
2019-03-17T13:57:55.825Z,3.70
2019-03-17T14:00:24.287Z,7.43
2019-03-17T14:02:52.756Z,3.47
2019-03-17T14:05:21.270Z,2.90
2019-03-17T14:07:49.728Z,2.17
2019-03-17T14:10:18.874Z,2.20
2019-03-17T14:12:47.362Z,2.53
2019-03-17T14:15:16.254Z,3.47
2019-03-17T14:17:44.716Z,1.93
2019-03-17T14:20:20.386Z,2.30
2019-03-17T14:22:48.239Z,2.70
2019-03-17T14:25:27.663Z,3.37
2019-03-17T14:27:56.122Z,1.80
2019-03-17T14:30:24.586Z,2.47
2019-03-17T14:32:53.072Z,1.80
2019-03-17T14:35:22.031Z,1.80
2019-03-17T14:37:50.573Z,1.97
2019-03-17T14:40:19.073Z,1.93
2019-03-17T14:42:48.769Z,2.57
2019-03-17T14:45:18.070Z,2.40
2019-03-17T14:47:46.643Z,2.17
2019-03-17T14:50:20.528Z,2.70
2019-03-17T14:52:48.988Z,1.80
2019-03-17T14:55:17.490Z,2.00
2019-03-17T14:57:45.947Z,1.87
2019-03-17T15:00:18.759Z,2.80
2019-03-17T15:02:47.238Z,2.50
2019-03-17T15:05:15.762Z,2.93
2019-03-17T15:07:44.287Z,2.40
2019-03-17T15:10:25.908Z,2.07
2019-03-17T15:12:54.588Z,2.27
2019-03-17T15:15:23.589Z,2.60
2019-03-17T15:17:52.072Z,2.43
2019-03-17T15:20:23.688Z,2.03
2019-03-17T15:22:52.139Z,1.73
2019-03-17T15:25:20.637Z,1.90
2019-03-17T15:27:49.086Z,2.10
2019-03-17T15:30:20.251Z,2.10
2019-03-17T15:32:48.769Z,1.90
2019-03-17T15:35:17.214Z,1.80
2019-03-17T15:37:45.681Z,2.87
2019-03-17T15:40:18.893Z,1.70
2019-03-17T15:42:47.356Z,2.03
2019-03-17T15:45:19.756Z,2.57
2019-03-17T15:47:48.263Z,3.07
2019-03-17T15:50:29.738Z,1.67
2019-03-17T15:52:58.240Z,1.73
2019-03-17T15:55:26.676Z,2.60
2019-03-17T15:57:55.128Z,1.83
2019-03-17T16:00:26.302Z,1.83
2019-03-17T16:02:54.512Z,1.70
2019-03-17T16:05:22.987Z,1.93
2019-03-17T16:07:51.481Z,1.70
2019-03-17T16:10:27.215Z,1.77
2019-03-17T16:12:55.764Z,2.00
2019-03-17T16:15:25.442Z,1.87
2019-03-17T16:17:53.899Z,1.90
2019-03-17T16:20:26.199Z,1.70
2019-03-17T16:22:54.683Z,1.80
2019-03-17T16:25:31.864Z,1.63
2019-03-17T16:28:00.352Z,2.10
2019-03-17T16:30:33.383Z,2.00
2019-03-17T16:33:01.843Z,2.43
2019-03-17T16:35:30.414Z,1.80
2019-03-17T16:37:58.927Z,1.10
2019-03-17T16:40:34.690Z,1.40
2019-03-17T16:43:03.488Z,1.00
2019-03-17T16:45:31.967Z,1.40
2019-03-17T16:48:00.493Z,2.50
2019-03-17T16:50:28.943Z,1.40
2019-03-17T16:52:57.427Z,1.10
2019-03-17T16:55:25.886Z,1.57
2019-03-17T16:57:54.347Z,2.10
2019-03-17T17:00:23.982Z,1.13
2019-03-17T17:02:52.810Z,2.23
2019-03-17T17:05:22.299Z,1.80
2019-03-17T17:07:50.794Z,1.33
2019-03-17T17:10:21.577Z,1.37
2019-03-17T17:12:50.098Z,1.30
2019-03-17T17:15:26.408Z,2.03
2019-03-17T17:17:55.234Z,1.47
2019-03-17T17:20:26.870Z,1.63
2019-03-17T17:22:55.352Z,1.90
2019-03-17T17:25:23.815Z,1.97
2019-03-17T17:27:52.282Z,1.63
2019-03-17T17:30:21.044Z,1.80
2019-03-17T17:32:49.659Z,1.50
2019-03-17T17:35:18.152Z,1.63
2019-03-17T17:37:46.643Z,1.40
2019-03-17T17:40:21.077Z,1.93
2019-03-17T17:42:49.552Z,1.53
2019-03-17T17:45:22.720Z,1.87
2019-03-17T17:47:51.242Z,1.60
2019-03-17T17:50:21.689Z,1.47
2019-03-17T17:52:50.367Z,1.00
2019-03-17T17:55:18.838Z,1.30
2019-03-17T17:57:47.368Z,1.30
2019-03-17T18:00:19.053Z,1.30
2019-03-17T18:02:47.561Z,1.57
2019-03-17T18:05:16.034Z,1.40
2019-03-17T18:07:44.520Z,1.10
2019-03-17T18:10:17.107Z,1.43
2019-03-17T18:12:45.553Z,1.30
2019-03-17T18:15:19.865Z,1.70
2019-03-17T18:17:48.328Z,1.33
2019-03-17T18:20:17.869Z,1.90
2019-03-17T18:22:46.382Z,2.20
2019-03-17T18:25:17.342Z,2.27
2019-03-17T18:27:46.168Z,2.00
2019-03-17T18:30:18.772Z,2.33
2019-03-17T18:32:47.240Z,2.60
2019-03-17T18:35:15.726Z,1.73
2019-03-17T18:37:44.231Z,1.73
2019-03-17T18:40:20.537Z,1.70
2019-03-17T18:42:49.166Z,1.60
2019-03-17T18:45:31.109Z,1.97
2019-03-17T18:47:59.556Z,1.60
2019-03-17T18:50:28.033Z,1.97
2019-03-17T18:52:56.519Z,2.90
2019-03-17T18:55:24.970Z,1.83
2019-03-17T18:57:53.420Z,2.03
2019-03-17T19:00:23.578Z,1.67
2019-03-17T19:02:52.103Z,2.77
2019-03-17T19:05:20.670Z,2.30
2019-03-17T19:07:49.129Z,2.30
2019-03-17T19:10:18.621Z,2.73
2019-03-17T19:12:47.144Z,3.00
2019-03-17T19:15:17.073Z,3.80
2019-03-17T19:17:45.517Z,3.20
2019-03-17T19:20:20.988Z,2.87
2019-03-17T19:22:49.732Z,2.47
2019-03-17T19:25:20.291Z,1.80
2019-03-17T19:27:48.752Z,1.83
2019-03-17T19:30:24.769Z,2.03
2019-03-17T19:32:53.280Z,2.00
2019-03-17T19:35:21.807Z,1.47
2019-03-17T19:37:50.283Z,1.40
2019-03-17T19:40:25.917Z,2.23
2019-03-17T19:42:59.059Z,2.00
2019-03-17T19:45:24.607Z,1.90
2019-03-17T19:47:53.101Z,1.80
2019-03-17T19:50:22.754Z,2.33
2019-03-17T19:52:51.259Z,1.70
2019-03-17T19:55:19.689Z,1.33
2019-03-17T19:57:48.180Z,2.33
2019-03-17T20:00:18.850Z,1.43
2019-03-17T20:02:48.023Z,2.30
2019-03-17T20:05:16.772Z,1.40
2019-03-17T20:07:45.296Z,2.03
2019-03-17T20:10:16.906Z,1.90
2019-03-17T20:12:45.380Z,1.67
2019-03-17T20:15:13.844Z,1.10
2019-03-17T20:17:42.301Z,2.57
2019-03-17T20:20:13.312Z,1.83
2019-03-17T20:22:41.839Z,2.50
2019-03-17T20:25:10.306Z,1.70
2019-03-17T20:27:38.794Z,1.33
2019-03-17T20:30:14.798Z,1.47
2019-03-17T20:32:43.298Z,1.50
2019-03-17T20:35:12.997Z,1.60
2019-03-17T20:37:41.464Z,1.20
2019-03-17T20:40:17.677Z,1.63
2019-03-17T20:42:46.126Z,1.57
2019-03-17T20:45:15.526Z,1.60
2019-03-17T20:47:44.004Z,1.43
2019-03-17T20:50:19.751Z,1.50
2019-03-17T20:52:48.286Z,1.90
2019-03-17T20:55:16.785Z,2.30
2019-03-17T20:57:45.245Z,1.60
2019-03-17T21:00:20.102Z,1.80
2019-03-17T21:02:48.580Z,2.37
2019-03-17T21:05:17.031Z,1.97
2019-03-17T21:07:45.498Z,1.37
2019-03-17T21:10:16.003Z,1.57
2019-03-17T21:12:44.528Z,1.77
2019-03-17T21:15:15.376Z,1.57
2019-03-17T21:17:43.860Z,2.10
2019-03-17T21:20:18.313Z,1.17
2019-03-17T21:22:46.755Z,1.40
2019-03-17T21:25:15.547Z,1.47
2019-03-17T21:27:44.023Z,1.60
2019-03-17T21:30:17.903Z,1.47
2019-03-17T21:32:46.785Z,1.53
2019-03-17T21:35:15.244Z,2.13
2019-03-17T21:37:43.777Z,1.73
2019-03-17T21:40:13.034Z,1.63
2019-03-17T21:42:41.488Z,1.93
2019-03-17T21:45:13.456Z,1.60
2019-03-17T21:47:41.969Z,1.73
2019-03-17T21:50:17.647Z,1.47
2019-03-17T21:52:46.184Z,1.50
2019-03-17T21:55:14.845Z,1.83
2019-03-17T21:57:43.686Z,2.00
2019-03-17T22:00:19.867Z,1.43
2019-03-17T22:02:48.474Z,1.70
2019-03-17T22:05:17.398Z,1.50
2019-03-17T22:07:49.981Z,1.57
2019-03-17T22:10:17.285Z,1.40
2019-03-17T22:12:45.749Z,1.17
2019-03-17T22:15:16.143Z,1.47
2019-03-17T22:17:44.599Z,1.10
2019-03-17T22:20:16.207Z,1.40
2019-03-17T22:22:44.761Z,1.03
2019-03-17T22:25:14.148Z,1.30
2019-03-17T22:27:43.522Z,1.10
2019-03-17T22:30:16.138Z,1.20
2019-03-17T22:32:44.591Z,1.73
2019-03-17T22:35:13.061Z,1.67
2019-03-17T22:37:41.550Z,1.30
2019-03-17T22:40:12.810Z,1.60
2019-03-17T22:42:41.343Z,1.50
2019-03-17T22:45:11.665Z,1.73
2019-03-17T22:47:40.136Z,1.07
2019-03-17T22:50:14.564Z,1.57
2019-03-17T22:52:43.058Z,1.47
2019-03-17T22:55:11.780Z,1.17
2019-03-17T22:57:40.242Z,1.70
2019-03-17T23:00:11.926Z,1.50
2019-03-17T23:02:40.375Z,1.70
2019-03-17T23:05:08.989Z,1.30
2019-03-17T23:07:37.864Z,1.50
2019-03-17T23:10:09.278Z,1.60
2019-03-17T23:12:37.731Z,1.90
2019-03-17T23:15:08.667Z,1.60
2019-03-17T23:17:37.127Z,1.10
2019-03-17T23:20:10.583Z,1.33
2019-03-17T23:22:39.077Z,1.60
2019-03-17T23:25:09.371Z,2.30
2019-03-17T23:27:37.828Z,1.20
2019-03-17T23:30:09.611Z,1.80
2019-03-17T23:32:38.059Z,1.20
2019-03-17T23:35:07.448Z,1.10
2019-03-17T23:37:35.949Z,1.60
2019-03-17T23:40:09.531Z,1.37
2019-03-17T23:42:37.023Z,1.60
2019-03-17T23:45:07.382Z,1.20
2019-03-17T23:47:35.845Z,1.20
2019-03-17T23:50:06.931Z,1.27
2019-03-17T23:52:35.418Z,1.90
2019-03-17T23:55:04.241Z,1.30
2019-03-17T23:57:33.547Z,2.23
